sensor_id;sensor_type;location;lat;lon;timestamp;P1;durP1;ratioP1;P2;durP2;ratioP2
60243;SDS011;46106;51.468;5.814;2023-03-01T00:01:52;11.70;;;6.75;;
60243;SDS011;46106;51.468;5.814;2023-03-01T00:04:18;12.80;;;6.80;;
60243;SDS011;46106;51.468;5.814;2023-03-01T00:06:43;12.98;;;6.65;;
60243;SDS011;46106;51.468;5.814;2023-03-01T00:09:15;9.55;;;5.78;;
60243;SDS011;46106;51.468;5.814;2023-03-01T00:11:42;11.70;;;6.30;;
60243;SDS011;46106;51.468;5.814;2023-03-01T00:14:07;12.15;;;7.15;;
60243;SDS011;46106;51.468;5.814;2023-03-01T00:16:34;11.48;;;6.72;;
60243;SDS011;46106;51.468;5.814;2023-03-01T00:19:04;10.05;;;6.22;;
60243;SDS011;46106;51.468;5.814;2023-03-01T00:21:30;13.18;;;6.10;;
60243;SDS011;46106;51.468;5.814;2023-03-01T00:23:56;10.75;;;6.18;;
60243;SDS011;46106;51.468;5.814;2023-03-01T00:26:22;10.27;;;6.50;;
60243;SDS011;46106;51.468;5.814;2023-03-01T00:28:49;10.50;;;5.88;;
60243;SDS011;46106;51.468;5.814;2023-03-01T00:31:17;13.05;;;6.93;;
60243;SDS011;46106;51.468;5.814;2023-03-01T00:33:44;12.10;;;7.00;;
60243;SDS011;46106;51.468;5.814;2023-03-01T00:36:10;12.07;;;6.90;;
60243;SDS011;46106;51.468;5.814;2023-03-01T00:38:40;14.75;;;7.00;;
60243;SDS011;46106;51.468;5.814;2023-03-01T00:41:09;12.73;;;6.70;;
60243;SDS011;46106;51.468;5.814;2023-03-01T00:43:37;12.98;;;6.82;;
60243;SDS011;46106;51.468;5.814;2023-03-01T00:46:04;10.65;;;5.82;;
60243;SDS011;46106;51.468;5.814;2023-03-01T00:48:34;14.45;;;6.30;;
60243;SDS011;46106;51.468;5.814;2023-03-01T00:51:06;11.23;;;6.20;;
60243;SDS011;46106;51.468;5.814;2023-03-01T00:53:36;11.05;;;6.55;;
60243;SDS011;46106;51.468;5.814;2023-03-01T00:56:02;10.20;;;6.00;;
60243;SDS011;46106;51.468;5.814;2023-03-01T00:58:29;9.05;;;6.25;;
60243;SDS011;46106;51.468;5.814;2023-03-01T01:00:55;10.00;;;5.88;;
60243;SDS011;46106;51.468;5.814;2023-03-01T01:03:20;18.35;;;6.93;;
60243;SDS011;46106;51.468;5.814;2023-03-01T01:05:46;10.13;;;5.88;;
60243;SDS011;46106;51.468;5.814;2023-03-01T01:08:11;11.93;;;6.25;;
60243;SDS011;46106;51.468;5.814;2023-03-01T01:10:37;12.93;;;7.15;;
60243;SDS011;46106;51.468;5.814;2023-03-01T01:13:03;11.38;;;6.63;;
60243;SDS011;46106;51.468;5.814;2023-03-01T01:15:29;10.68;;;6.00;;
60243;SDS011;46106;51.468;5.814;2023-03-01T01:17:58;10.43;;;6.20;;
60243;SDS011;46106;51.468;5.814;2023-03-01T01:20:27;16.75;;;6.32;;
60243;SDS011;46106;51.468;5.814;2023-03-01T01:22:52;9.85;;;6.85;;
60243;SDS011;46106;51.468;5.814;2023-03-01T01:25:18;9.65;;;6.18;;
60243;SDS011;46106;51.468;5.814;2023-03-01T01:27:50;13.50;;;6.68;;
60243;SDS011;46106;51.468;5.814;2023-03-01T01:30:15;11.50;;;6.07;;
60243;SDS011;46106;51.468;5.814;2023-03-01T01:32:41;10.80;;;6.50;;
60243;SDS011;46106;51.468;5.814;2023-03-01T01:35:07;12.98;;;6.18;;
60243;SDS011;46106;51.468;5.814;2023-03-01T01:37:32;10.50;;;6.25;;
60243;SDS011;46106;51.468;5.814;2023-03-01T01:39:58;10.15;;;6.00;;
60243;SDS011;46106;51.468;5.814;2023-03-01T01:42:24;9.30;;;6.05;;
60243;SDS011;46106;51.468;5.814;2023-03-01T01:45:15;12.93;;;6.32;;
60243;SDS011;46106;51.468;5.814;2023-03-01T01:47:53;13.80;;;5.80;;
60243;SDS011;46106;51.468;5.814;2023-03-01T01:50:22;8.77;;;5.80;;
60243;SDS011;46106;51.468;5.814;2023-03-01T01:52:48;11.63;;;6.40;;
60243;SDS011;46106;51.468;5.814;2023-03-01T01:55:17;10.13;;;6.07;;
60243;SDS011;46106;51.468;5.814;2023-03-01T01:57:51;9.00;;;5.55;;
60243;SDS011;46106;51.468;5.814;2023-03-01T02:00:21;10.43;;;6.47;;
60243;SDS011;46106;51.468;5.814;2023-03-01T02:02:51;12.50;;;6.03;;
60243;SDS011;46106;51.468;5.814;2023-03-01T02:08:17;9.27;;;5.97;;
60243;SDS011;46106;51.468;5.814;2023-03-01T02:10:45;12.15;;;6.18;;
60243;SDS011;46106;51.468;5.814;2023-03-01T02:13:11;11.68;;;6.63;;
60243;SDS011;46106;51.468;5.814;2023-03-01T02:15:38;12.77;;;6.93;;
60243;SDS011;46106;51.468;5.814;2023-03-01T02:18:05;14.98;;;5.97;;
60243;SDS011;46106;51.468;5.814;2023-03-01T02:25:54;9.57;;;5.25;;
60243;SDS011;46106;51.468;5.814;2023-03-01T02:30:47;13.70;;;6.75;;
60243;SDS011;46106;51.468;5.814;2023-03-01T02:33:33;13.10;;;6.95;;
60243;SDS011;46106;51.468;5.814;2023-03-01T02:36:09;12.68;;;6.85;;
60243;SDS011;46106;51.468;5.814;2023-03-01T02:38:40;12.18;;;6.15;;
60243;SDS011;46106;51.468;5.814;2023-03-01T02:41:06;11.82;;;6.78;;
60243;SDS011;46106;51.468;5.814;2023-03-01T02:43:33;9.20;;;5.90;;
60243;SDS011;46106;51.468;5.814;2023-03-01T02:46:05;10.88;;;6.07;;
60243;SDS011;46106;51.468;5.814;2023-03-01T02:57:02;10.48;;;5.95;;
60243;SDS011;46106;51.468;5.814;2023-03-01T02:59:29;10.00;;;5.80;;
60243;SDS011;46106;51.468;5.814;2023-03-01T03:02:04;11.68;;;6.40;;
60243;SDS011;46106;51.468;5.814;2023-03-01T03:04:30;9.07;;;6.35;;
60243;SDS011;46106;51.468;5.814;2023-03-01T03:06:56;12.65;;;6.80;;
60243;SDS011;46106;51.468;5.814;2023-03-01T03:09:22;11.85;;;6.53;;
60243;SDS011;46106;51.468;5.814;2023-03-01T03:11:48;11.18;;;6.68;;
60243;SDS011;46106;51.468;5.814;2023-03-01T03:14:14;13.07;;;6.90;;
60243;SDS011;46106;51.468;5.814;2023-03-01T03:16:42;13.27;;;6.97;;
60243;SDS011;46106;51.468;5.814;2023-03-01T03:19:09;12.43;;;7.13;;
60243;SDS011;46106;51.468;5.814;2023-03-01T03:21:34;15.88;;;7.30;;
60243;SDS011;46106;51.468;5.814;2023-03-01T03:24:00;16.15;;;6.82;;
60243;SDS011;46106;51.468;5.814;2023-03-01T03:26:26;12.88;;;6.10;;
60243;SDS011;46106;51.468;5.814;2023-03-01T03:28:51;8.90;;;5.53;;
60243;SDS011;46106;51.468;5.814;2023-03-01T03:31:17;11.02;;;6.70;;
60243;SDS011;46106;51.468;5.814;2023-03-01T03:33:43;12.77;;;6.03;;
60243;SDS011;46106;51.468;5.814;2023-03-01T03:36:08;11.80;;;6.93;;
60243;SDS011;46106;51.468;5.814;2023-03-01T03:38:38;13.05;;;6.53;;
60243;SDS011;46106;51.468;5.814;2023-03-01T03:41:06;14.13;;;6.80;;
60243;SDS011;46106;51.468;5.814;2023-03-01T03:43:33;14.20;;;7.60;;
60243;SDS011;46106;51.468;5.814;2023-03-01T03:46:01;12.82;;;6.60;;
60243;SDS011;46106;51.468;5.814;2023-03-01T03:48:31;10.70;;;6.05;;
60243;SDS011;46106;51.468;5.814;2023-03-01T03:51:00;18.67;;;7.25;;
60243;SDS011;46106;51.468;5.814;2023-03-01T03:53:26;10.75;;;6.40;;
60243;SDS011;46106;51.468;5.814;2023-03-01T03:55:53;12.13;;;6.63;;
60243;SDS011;46106;51.468;5.814;2023-03-01T03:58:20;10.07;;;5.88;;
60243;SDS011;46106;51.468;5.814;2023-03-01T04:00:48;12.23;;;6.68;;
60243;SDS011;46106;51.468;5.814;2023-03-01T04:03:16;11.38;;;6.78;;
60243;SDS011;46106;51.468;5.814;2023-03-01T04:05:44;11.38;;;6.18;;
60243;SDS011;46106;51.468;5.814;2023-03-01T04:08:10;11.98;;;6.00;;
60243;SDS011;46106;51.468;5.814;2023-03-01T04:10:38;11.55;;;6.45;;
60243;SDS011;46106;51.468;5.814;2023-03-01T04:13:09;14.68;;;6.35;;
60243;SDS011;46106;51.468;5.814;2023-03-01T04:15:37;13.95;;;6.72;;
60243;SDS011;46106;51.468;5.814;2023-03-01T04:18:02;11.80;;;6.55;;
60243;SDS011;46106;51.468;5.814;2023-03-01T04:20:29;11.52;;;6.60;;
60243;SDS011;46106;51.468;5.814;2023-03-01T04:22:57;23.92;;;7.38;;
60243;SDS011;46106;51.468;5.814;2023-03-01T04:25:57;12.10;;;6.38;;
60243;SDS011;46106;51.468;5.814;2023-03-01T04:28:22;11.35;;;6.32;;
60243;SDS011;46106;51.468;5.814;2023-03-01T04:30:50;13.98;;;6.80;;
60243;SDS011;46106;51.468;5.814;2023-03-01T04:33:16;10.30;;;6.57;;
60243;SDS011;46106;51.468;5.814;2023-03-01T04:35:42;11.77;;;6.82;;
60243;SDS011;46106;51.468;5.814;2023-03-01T04:38:07;12.18;;;6.82;;
60243;SDS011;46106;51.468;5.814;2023-03-01T04:40:33;12.00;;;6.57;;
60243;SDS011;46106;51.468;5.814;2023-03-01T04:43:00;13.00;;;6.60;;
60243;SDS011;46106;51.468;5.814;2023-03-01T04:45:25;14.63;;;5.65;;
60243;SDS011;46106;51.468;5.814;2023-03-01T04:47:51;10.80;;;6.57;;
60243;SDS011;46106;51.468;5.814;2023-03-01T04:50:20;11.02;;;6.28;;
60243;SDS011;46106;51.468;5.814;2023-03-01T04:52:46;13.57;;;7.18;;
60243;SDS011;46106;51.468;5.814;2023-03-01T04:55:12;10.15;;;5.68;;
60243;SDS011;46106;51.468;5.814;2023-03-01T04:57:38;9.45;;;6.10;;
60243;SDS011;46106;51.468;5.814;2023-03-01T05:00:04;11.45;;;6.60;;
60243;SDS011;46106;51.468;5.814;2023-03-01T05:02:45;9.68;;;6.07;;
60243;SDS011;46106;51.468;5.814;2023-03-01T05:05:13;12.38;;;6.95;;
60243;SDS011;46106;51.468;5.814;2023-03-01T05:07:39;10.48;;;6.10;;
60243;SDS011;46106;51.468;5.814;2023-03-01T05:10:04;12.82;;;6.68;;
60243;SDS011;46106;51.468;5.814;2023-03-01T05:12:30;14.35;;;7.05;;
60243;SDS011;46106;51.468;5.814;2023-03-01T05:14:56;11.02;;;6.22;;
60243;SDS011;46106;51.468;5.814;2023-03-01T05:17:23;11.48;;;6.60;;
60243;SDS011;46106;51.468;5.814;2023-03-01T05:19:51;16.63;;;6.85;;
60243;SDS011;46106;51.468;5.814;2023-03-01T05:22:17;11.60;;;7.15;;
60243;SDS011;46106;51.468;5.814;2023-03-01T05:24:44;13.10;;;7.05;;
60243;SDS011;46106;51.468;5.814;2023-03-01T05:27:09;10.48;;;6.50;;
60243;SDS011;46106;51.468;5.814;2023-03-01T05:29:35;12.10;;;7.03;;
60243;SDS011;46106;51.468;5.814;2023-03-01T05:32:01;14.20;;;7.32;;
60243;SDS011;46106;51.468;5.814;2023-03-01T05:34:28;10.68;;;6.00;;
60243;SDS011;46106;51.468;5.814;2023-03-01T05:36:58;10.90;;;6.82;;
60243;SDS011;46106;51.468;5.814;2023-03-01T05:39:25;11.10;;;6.53;;
60243;SDS011;46106;51.468;5.814;2023-03-01T05:41:52;18.98;;;7.65;;
60243;SDS011;46106;51.468;5.814;2023-03-01T05:44:20;18.27;;;7.28;;
60243;SDS011;46106;51.468;5.814;2023-03-01T05:46:46;13.95;;;6.97;;
60243;SDS011;46106;51.468;5.814;2023-03-01T05:49:12;10.77;;;7.18;;
60243;SDS011;46106;51.468;5.814;2023-03-01T05:51:39;14.48;;;7.22;;
60243;SDS011;46106;51.468;5.814;2023-03-01T05:54:05;13.98;;;7.32;;
60243;SDS011;46106;51.468;5.814;2023-03-01T05:56:32;13.02;;;7.47;;
60243;SDS011;46106;51.468;5.814;2023-03-01T05:58:59;13.23;;;8.07;;
60243;SDS011;46106;51.468;5.814;2023-03-01T06:01:25;14.38;;;7.65;;
60243;SDS011;46106;51.468;5.814;2023-03-01T06:03:50;14.77;;;8.20;;
60243;SDS011;46106;51.468;5.814;2023-03-01T06:06:16;17.23;;;8.13;;
60243;SDS011;46106;51.468;5.814;2023-03-01T06:08:41;15.30;;;7.53;;
60243;SDS011;46106;51.468;5.814;2023-03-01T06:11:07;13.18;;;7.80;;
60243;SDS011;46106;51.468;5.814;2023-03-01T06:13:32;17.27;;;7.18;;
60243;SDS011;46106;51.468;5.814;2023-03-01T06:15:58;14.23;;;7.95;;
60243;SDS011;46106;51.468;5.814;2023-03-01T06:18:23;13.73;;;7.47;;
60243;SDS011;46106;51.468;5.814;2023-03-01T06:20:55;19.92;;;7.82;;
60243;SDS011;46106;51.468;5.814;2023-03-01T06:23:21;13.93;;;7.30;;
60243;SDS011;46106;51.468;5.814;2023-03-01T06:25:47;11.93;;;6.68;;
60243;SDS011;46106;51.468;5.814;2023-03-01T06:28:13;12.23;;;7.30;;
60243;SDS011;46106;51.468;5.814;2023-03-01T06:30:38;16.88;;;8.32;;
60243;SDS011;46106;51.468;5.814;2023-03-01T06:33:03;15.43;;;7.00;;
60243;SDS011;46106;51.468;5.814;2023-03-01T06:35:29;15.20;;;7.65;;
60243;SDS011;46106;51.468;5.814;2023-03-01T06:37:56;11.35;;;7.57;;
60243;SDS011;46106;51.468;5.814;2023-03-01T06:40:22;11.77;;;7.10;;
60243;SDS011;46106;51.468;5.814;2023-03-01T06:42:48;12.13;;;7.18;;
60243;SDS011;46106;51.468;5.814;2023-03-01T06:45:14;12.80;;;7.53;;
60243;SDS011;46106;51.468;5.814;2023-03-01T06:47:40;14.45;;;7.95;;
60243;SDS011;46106;51.468;5.814;2023-03-01T06:50:06;16.38;;;8.70;;
60243;SDS011;46106;51.468;5.814;2023-03-01T06:52:32;17.63;;;8.35;;
60243;SDS011;46106;51.468;5.814;2023-03-01T06:54:58;15.98;;;8.38;;
60243;SDS011;46106;51.468;5.814;2023-03-01T06:57:24;15.45;;;8.20;;
60243;SDS011;46106;51.468;5.814;2023-03-01T06:59:49;17.33;;;8.68;;
60243;SDS011;46106;51.468;5.814;2023-03-01T07:02:15;15.20;;;8.60;;
60243;SDS011;46106;51.468;5.814;2023-03-01T07:04:41;15.57;;;8.57;;
60243;SDS011;46106;51.468;5.814;2023-03-01T07:07:07;16.00;;;8.52;;
60243;SDS011;46106;51.468;5.814;2023-03-01T07:09:33;17.90;;;7.97;;
60243;SDS011;46106;51.468;5.814;2023-03-01T07:11:58;21.42;;;8.63;;
60243;SDS011;46106;51.468;5.814;2023-03-01T07:14:24;16.77;;;8.15;;
60243;SDS011;46106;51.468;5.814;2023-03-01T07:16:51;14.63;;;8.02;;
60243;SDS011;46106;51.468;5.814;2023-03-01T07:19:18;16.95;;;8.02;;
60243;SDS011;46106;51.468;5.814;2023-03-01T07:21:44;15.70;;;7.90;;
60243;SDS011;46106;51.468;5.814;2023-03-01T07:24:10;14.27;;;9.15;;
60243;SDS011;46106;51.468;5.814;2023-03-01T07:26:35;12.88;;;7.88;;
60243;SDS011;46106;51.468;5.814;2023-03-01T07:29:02;21.00;;;9.05;;
60243;SDS011;46106;51.468;5.814;2023-03-01T07:31:30;16.70;;;8.40;;
60243;SDS011;46106;51.468;5.814;2023-03-01T07:33:55;16.30;;;8.35;;
60243;SDS011;46106;51.468;5.814;2023-03-01T07:36:21;19.90;;;7.88;;
60243;SDS011;46106;51.468;5.814;2023-03-01T07:38:47;15.82;;;7.68;;
60243;SDS011;46106;51.468;5.814;2023-03-01T07:41:12;17.05;;;7.72;;
60243;SDS011;46106;51.468;5.814;2023-03-01T07:43:38;15.57;;;7.88;;
60243;SDS011;46106;51.468;5.814;2023-03-01T07:46:03;11.27;;;7.75;;
60243;SDS011;46106;51.468;5.814;2023-03-01T07:48:29;18.02;;;8.73;;
60243;SDS011;46106;51.468;5.814;2023-03-01T07:50:59;17.65;;;8.43;;
60243;SDS011;46106;51.468;5.814;2023-03-01T07:53:25;14.40;;;7.57;;
60243;SDS011;46106;51.468;5.814;2023-03-01T07:55:59;19.17;;;9.55;;
60243;SDS011;46106;51.468;5.814;2023-03-01T07:58:29;21.88;;;10.80;;
60243;SDS011;46106;51.468;5.814;2023-03-01T08:00:54;18.60;;;8.57;;
60243;SDS011;46106;51.468;5.814;2023-03-01T08:03:20;19.60;;;9.93;;
60243;SDS011;46106;51.468;5.814;2023-03-01T08:05:45;14.27;;;8.25;;
60243;SDS011;46106;51.468;5.814;2023-03-01T08:08:11;16.42;;;8.10;;
60243;SDS011;46106;51.468;5.814;2023-03-01T08:10:36;17.58;;;9.45;;
60243;SDS011;46106;51.468;5.814;2023-03-01T08:13:02;18.23;;;9.73;;
60243;SDS011;46106;51.468;5.814;2023-03-01T08:15:27;18.00;;;9.57;;
60243;SDS011;46106;51.468;5.814;2023-03-01T08:17:53;22.65;;;10.27;;
60243;SDS011;46106;51.468;5.814;2023-03-01T08:20:19;23.25;;;12.07;;
60243;SDS011;46106;51.468;5.814;2023-03-01T08:22:45;22.27;;;10.85;;
60243;SDS011;46106;51.468;5.814;2023-03-01T08:25:11;18.55;;;8.88;;
60243;SDS011;46106;51.468;5.814;2023-03-01T08:27:36;20.42;;;9.45;;
60243;SDS011;46106;51.468;5.814;2023-03-01T08:30:02;16.73;;;9.05;;
60243;SDS011;46106;51.468;5.814;2023-03-01T08:32:28;17.98;;;9.73;;
60243;SDS011;46106;51.468;5.814;2023-03-01T08:34:53;15.73;;;6.75;;
60243;SDS011;46106;51.468;5.814;2023-03-01T08:37:19;11.00;;;6.78;;
60243;SDS011;46106;51.468;5.814;2023-03-01T08:39:44;11.43;;;7.18;;
60243;SDS011;46106;51.468;5.814;2023-03-01T08:42:10;15.88;;;7.45;;
60243;SDS011;46106;51.468;5.814;2023-03-01T08:44:35;13.20;;;7.80;;
60243;SDS011;46106;51.468;5.814;2023-03-01T08:47:00;15.85;;;7.75;;
60243;SDS011;46106;51.468;5.814;2023-03-01T08:49:29;14.05;;;6.93;;
60243;SDS011;46106;51.468;5.814;2023-03-01T08:51:57;13.20;;;6.88;;
60243;SDS011;46106;51.468;5.814;2023-03-01T08:54:23;14.35;;;7.85;;
60243;SDS011;46106;51.468;5.814;2023-03-01T08:56:48;12.43;;;7.53;;
60243;SDS011;46106;51.468;5.814;2023-03-01T08:59:14;11.70;;;7.07;;
60243;SDS011;46106;51.468;5.814;2023-03-01T09:01:41;8.60;;;6.20;;
60243;SDS011;46106;51.468;5.814;2023-03-01T09:04:10;9.88;;;6.03;;
60243;SDS011;46106;51.468;5.814;2023-03-01T09:06:36;12.70;;;7.30;;
60243;SDS011;46106;51.468;5.814;2023-03-01T09:09:03;12.80;;;6.30;;
60243;SDS011;46106;51.468;5.814;2023-03-01T09:11:30;14.05;;;7.43;;
60243;SDS011;46106;51.468;5.814;2023-03-01T09:13:55;11.30;;;6.60;;
60243;SDS011;46106;51.468;5.814;2023-03-01T09:16:22;8.90;;;5.93;;
60243;SDS011;46106;51.468;5.814;2023-03-01T09:18:51;9.55;;;6.25;;
60243;SDS011;46106;51.468;5.814;2023-03-01T09:21:19;11.63;;;6.45;;
60243;SDS011;46106;51.468;5.814;2023-03-01T09:23:46;11.93;;;6.30;;
60243;SDS011;46106;51.468;5.814;2023-03-01T09:26:17;12.88;;;5.88;;
60243;SDS011;46106;51.468;5.814;2023-03-01T09:28:46;11.52;;;6.72;;
60243;SDS011;46106;51.468;5.814;2023-03-01T09:31:12;11.75;;;6.82;;
60243;SDS011;46106;51.468;5.814;2023-03-01T09:33:39;10.82;;;6.35;;
60243;SDS011;46106;51.468;5.814;2023-03-01T09:36:06;16.67;;;6.70;;
60243;SDS011;46106;51.468;5.814;2023-03-01T09:38:35;16.83;;;7.85;;
60243;SDS011;46106;51.468;5.814;2023-03-01T09:41:00;20.27;;;7.63;;
60243;SDS011;46106;51.468;5.814;2023-03-01T09:43:56;10.60;;;6.72;;
60243;SDS011;46106;51.468;5.814;2023-03-01T09:46:29;10.43;;;6.45;;
60243;SDS011;46106;51.468;5.814;2023-03-01T09:49:09;12.50;;;7.13;;
60243;SDS011;46106;51.468;5.814;2023-03-01T09:54:54;12.85;;;7.72;;
60243;SDS011;46106;51.468;5.814;2023-03-01T10:00:22;15.65;;;7.85;;
60243;SDS011;46106;51.468;5.814;2023-03-01T10:11:01;15.70;;;7.75;;
60243;SDS011;46106;51.468;5.814;2023-03-01T10:19:14;14.55;;;9.50;;
60243;SDS011;46106;51.468;5.814;2023-03-01T10:21:46;19.95;;;8.55;;
60243;SDS011;46106;51.468;5.814;2023-03-01T10:24:12;13.50;;;8.32;;
60243;SDS011;46106;51.468;5.814;2023-03-01T10:29:09;12.73;;;7.20;;
60243;SDS011;46106;51.468;5.814;2023-03-01T10:34:27;15.18;;;8.25;;
60243;SDS011;46106;51.468;5.814;2023-03-01T10:37:08;15.32;;;7.90;;
60243;SDS011;46106;51.468;5.814;2023-03-01T10:39:34;12.95;;;7.63;;
60243;SDS011;46106;51.468;5.814;2023-03-01T10:42:04;19.60;;;8.00;;
60243;SDS011;46106;51.468;5.814;2023-03-01T10:44:44;14.43;;;6.97;;
60243;SDS011;46106;51.468;5.814;2023-03-01T10:47:20;13.88;;;7.63;;
60243;SDS011;46106;51.468;5.814;2023-03-01T10:49:58;12.35;;;6.65;;
60243;SDS011;46106;51.468;5.814;2023-03-01T10:54:58;11.88;;;6.85;;
60243;SDS011;46106;51.468;5.814;2023-03-01T10:57:36;17.45;;;7.45;;
60243;SDS011;46106;51.468;5.814;2023-03-01T11:03:10;11.73;;;6.38;;
60243;SDS011;46106;51.468;5.814;2023-03-01T11:06:21;9.38;;;6.07;;
60243;SDS011;46106;51.468;5.814;2023-03-01T11:11:32;13.77;;;7.13;;
60243;SDS011;46106;51.468;5.814;2023-03-01T11:14:01;10.27;;;5.78;;
60243;SDS011;46106;51.468;5.814;2023-03-01T11:16:32;14.75;;;6.55;;
60243;SDS011;46106;51.468;5.814;2023-03-01T11:19:21;9.13;;;5.45;;
60243;SDS011;46106;51.468;5.814;2023-03-01T11:24:48;10.10;;;5.68;;
60243;SDS011;46106;51.468;5.814;2023-03-01T11:30:03;11.80;;;6.65;;
60243;SDS011;46106;51.468;5.814;2023-03-01T11:32:38;11.00;;;6.10;;
60243;SDS011;46106;51.468;5.814;2023-03-01T11:35:21;13.07;;;5.75;;
60243;SDS011;46106;51.468;5.814;2023-03-01T11:40:49;16.95;;;6.20;;
60243;SDS011;46106;51.468;5.814;2023-03-01T11:43:25;16.08;;;5.90;;
60243;SDS011;46106;51.468;5.814;2023-03-01T11:46:26;9.25;;;5.43;;
60243;SDS011;46106;51.468;5.814;2023-03-01T11:49:22;10.98;;;5.95;;
60243;SDS011;46106;51.468;5.814;2023-03-01T11:57:22;10.98;;;5.55;;
60243;SDS011;46106;51.468;5.814;2023-03-01T12:03:02;10.77;;;5.53;;
60243;SDS011;46106;51.468;5.814;2023-03-01T12:05:51;10.20;;;4.97;;
60243;SDS011;46106;51.468;5.814;2023-03-01T12:08:45;14.10;;;5.85;;
60243;SDS011;46106;51.468;5.814;2023-03-01T12:11:22;11.05;;;5.70;;
60243;SDS011;46106;51.468;5.814;2023-03-01T12:17:16;9.10;;;4.03;;
60243;SDS011;46106;51.468;5.814;2023-03-01T12:20:40;11.43;;;5.72;;
60243;SDS011;46106;51.468;5.814;2023-03-01T12:26:10;9.98;;;5.40;;
60243;SDS011;46106;51.468;5.814;2023-03-01T12:31:49;13.65;;;4.93;;
60243;SDS011;46106;51.468;5.814;2023-03-01T12:50:54;7.65;;;4.70;;
60243;SDS011;46106;51.468;5.814;2023-03-01T12:53:25;22.85;;;5.65;;
60243;SDS011;46106;51.468;5.814;2023-03-01T12:55:54;12.70;;;5.55;;
60243;SDS011;46106;51.468;5.814;2023-03-01T12:58:32;8.57;;;5.38;;
60243;SDS011;46106;51.468;5.814;2023-03-01T13:03:38;15.40;;;5.13;;
60243;SDS011;46106;51.468;5.814;2023-03-01T13:06:10;9.10;;;4.60;;
60243;SDS011;46106;51.468;5.814;2023-03-01T13:09:14;8.07;;;4.93;;
60243;SDS011;46106;51.468;5.814;2023-03-01T13:11:56;10.68;;;4.72;;
60243;SDS011;46106;51.468;5.814;2023-03-01T13:16:50;15.10;;;5.75;;
60243;SDS011;46106;51.468;5.814;2023-03-01T13:19:18;8.82;;;5.50;;
60243;SDS011;46106;51.468;5.814;2023-03-01T13:21:46;12.05;;;5.20;;
60243;SDS011;46106;51.468;5.814;2023-03-01T13:29:54;8.13;;;4.75;;
60243;SDS011;46106;51.468;5.814;2023-03-01T13:32:31;9.48;;;5.38;;
60243;SDS011;46106;51.468;5.814;2023-03-01T13:37:42;11.23;;;5.03;;
60243;SDS011;46106;51.468;5.814;2023-03-01T13:42:43;13.18;;;5.00;;
60243;SDS011;46106;51.468;5.814;2023-03-01T13:45:25;8.13;;;5.22;;
60243;SDS011;46106;51.468;5.814;2023-03-01T13:48:43;9.65;;;4.50;;
60243;SDS011;46106;51.468;5.814;2023-03-01T13:50:55;12.30;;;4.95;;
60243;SDS011;46106;51.468;5.814;2023-03-01T13:53:26;12.65;;;5.57;;
60243;SDS011;46106;51.468;5.814;2023-03-01T13:56:07;8.18;;;4.80;;
60243;SDS011;46106;51.468;5.814;2023-03-01T13:58:50;12.18;;;5.10;;
60243;SDS011;46106;51.468;5.814;2023-03-01T14:03:53;14.63;;;4.97;;
60243;SDS011;46106;51.468;5.814;2023-03-01T14:06:26;6.47;;;4.68;;
60243;SDS011;46106;51.468;5.814;2023-03-01T14:09:10;8.82;;;4.95;;
60243;SDS011;46106;51.468;5.814;2023-03-01T14:14:31;8.80;;;5.15;;
60243;SDS011;46106;51.468;5.814;2023-03-01T14:20:09;13.43;;;4.68;;
60243;SDS011;46106;51.468;5.814;2023-03-01T14:22:55;12.20;;;5.40;;
60243;SDS011;46106;51.468;5.814;2023-03-01T14:28:11;11.48;;;5.85;;
60243;SDS011;46106;51.468;5.814;2023-03-01T14:30:38;10.85;;;6.22;;
60243;SDS011;46106;51.468;5.814;2023-03-01T14:33:18;10.57;;;5.88;;
60243;SDS011;46106;51.468;5.814;2023-03-01T14:38:23;12.25;;;6.30;;
60243;SDS011;46106;51.468;5.814;2023-03-01T14:40:56;14.70;;;6.30;;
60243;SDS011;46106;51.468;5.814;2023-03-01T14:43:26;10.25;;;5.53;;
60243;SDS011;46106;51.468;5.814;2023-03-01T14:45:54;9.35;;;5.65;;
60243;SDS011;46106;51.468;5.814;2023-03-01T14:48:19;14.15;;;6.45;;
60243;SDS011;46106;51.468;5.814;2023-03-01T14:50:46;10.70;;;5.80;;
60243;SDS011;46106;51.468;5.814;2023-03-01T14:53:15;11.73;;;5.50;;
60243;SDS011;46106;51.468;5.814;2023-03-01T14:55:54;12.80;;;6.30;;
60243;SDS011;46106;51.468;5.814;2023-03-01T14:58:23;11.40;;;6.47;;
60243;SDS011;46106;51.468;5.814;2023-03-01T15:00:51;10.00;;;5.43;;
60243;SDS011;46106;51.468;5.814;2023-03-01T15:03:41;11.00;;;6.45;;
60243;SDS011;46106;51.468;5.814;2023-03-01T15:06:09;15.65;;;7.68;;
60243;SDS011;46106;51.468;5.814;2023-03-01T15:08:40;11.77;;;6.68;;
60243;SDS011;46106;51.468;5.814;2023-03-01T15:11:24;10.45;;;6.35;;
60243;SDS011;46106;51.468;5.814;2023-03-01T15:13:53;13.20;;;6.13;;
60243;SDS011;46106;51.468;5.814;2023-03-01T15:16:21;12.80;;;6.60;;
60243;SDS011;46106;51.468;5.814;2023-03-01T15:18:59;12.15;;;6.30;;
60243;SDS011;46106;51.468;5.814;2023-03-01T15:21:33;11.77;;;7.03;;
60243;SDS011;46106;51.468;5.814;2023-03-01T15:26:49;10.30;;;6.35;;
60243;SDS011;46106;51.468;5.814;2023-03-01T15:29:20;10.10;;;5.43;;
60243;SDS011;46106;51.468;5.814;2023-03-01T15:34:48;10.15;;;6.55;;
60243;SDS011;46106;51.468;5.814;2023-03-01T15:37:36;14.23;;;6.78;;
60243;SDS011;46106;51.468;5.814;2023-03-01T15:42:56;15.60;;;7.68;;
60243;SDS011;46106;51.468;5.814;2023-03-01T15:45:27;15.32;;;7.18;;
60243;SDS011;46106;51.468;5.814;2023-03-01T15:47:58;13.52;;;6.38;;
60243;SDS011;46106;51.468;5.814;2023-03-01T15:50:30;17.05;;;6.20;;
60243;SDS011;46106;51.468;5.814;2023-03-01T15:52:58;18.65;;;7.30;;
60243;SDS011;46106;51.468;5.814;2023-03-01T15:55:28;13.70;;;6.82;;
60243;SDS011;46106;51.468;5.814;2023-03-01T16:00:46;13.88;;;7.30;;
60243;SDS011;46106;51.468;5.814;2023-03-01T16:03:13;15.02;;;7.68;;
60243;SDS011;46106;51.468;5.814;2023-03-01T16:05:46;16.58;;;6.95;;
60243;SDS011;46106;51.468;5.814;2023-03-01T16:08:13;12.25;;;6.78;;
60243;SDS011;46106;51.468;5.814;2023-03-01T16:10:40;11.82;;;7.00;;
60243;SDS011;46106;51.468;5.814;2023-03-01T16:13:08;15.52;;;6.10;;
60243;SDS011;46106;51.468;5.814;2023-03-01T16:15:35;11.57;;;6.28;;
60243;SDS011;46106;51.468;5.814;2023-03-01T16:18:00;18.73;;;7.35;;
60243;SDS011;46106;51.468;5.814;2023-03-01T16:20:27;15.85;;;7.20;;
60243;SDS011;46106;51.468;5.814;2023-03-01T16:22:54;15.30;;;6.60;;
60243;SDS011;46106;51.468;5.814;2023-03-01T16:25:22;11.48;;;6.72;;
60243;SDS011;46106;51.468;5.814;2023-03-01T16:27:49;14.40;;;6.65;;
60243;SDS011;46106;51.468;5.814;2023-03-01T16:30:16;11.52;;;6.35;;
60243;SDS011;46106;51.468;5.814;2023-03-01T16:32:44;16.05;;;6.80;;
60243;SDS011;46106;51.468;5.814;2023-03-01T16:35:12;13.23;;;6.82;;
60243;SDS011;46106;51.468;5.814;2023-03-01T16:37:39;14.93;;;6.60;;
60243;SDS011;46106;51.468;5.814;2023-03-01T16:40:06;14.85;;;6.93;;
60243;SDS011;46106;51.468;5.814;2023-03-01T16:42:40;13.00;;;7.55;;
60243;SDS011;46106;51.468;5.814;2023-03-01T16:45:07;15.93;;;7.35;;
60243;SDS011;46106;51.468;5.814;2023-03-01T16:47:33;12.15;;;7.18;;
60243;SDS011;46106;51.468;5.814;2023-03-01T16:49:59;13.90;;;7.60;;
60243;SDS011;46106;51.468;5.814;2023-03-01T16:52:24;11.88;;;7.78;;
60243;SDS011;46106;51.468;5.814;2023-03-01T16:54:50;12.77;;;6.65;;
60243;SDS011;46106;51.468;5.814;2023-03-01T16:57:15;10.93;;;6.72;;
60243;SDS011;46106;51.468;5.814;2023-03-01T16:59:41;10.50;;;5.70;;
60243;SDS011;46106;51.468;5.814;2023-03-01T17:02:09;15.20;;;6.68;;
60243;SDS011;46106;51.468;5.814;2023-03-01T17:04:37;9.95;;;5.93;;
60243;SDS011;46106;51.468;5.814;2023-03-01T17:07:04;15.25;;;7.10;;